Airfield :







YOU CAN JOIN US ON...

 
LOGIN :

Register | Disclaimer

   EN    FR    IT 

 









Legend :    VFR   Marginal VFR   IFR   Intensive IFR   Very Intensive IFR
Visi :
Ceiling :
>= 8 km
>= 3000ft
5 to 8 km
1000 to 3000 ft
1500m to 5 km
500 to 1000 ft
800 to 1500m
200 to 500 ft
< 800m
< 200 ft
Symbols :   Thunderstorms  Fog  Heavy snow  Heavy precipitations  Wind > 20 kt






- Airport Elevation : 328 ft


KGFL - Floyd Bennett Memorial

CURRENT METAR :
  • 170253Z AUTO 00000KT 10SM FEW041 OVC050 M04/M07 A3005 RMK AO2 SLP186 T10391067 53004

EXPIRED METARs :
  • 170153Z AUTO 00000KT 10SM FEW050 M04/M06 A3004 RMK AO2 SLP182 T10391061
  • 170053Z AUTO 00000KT 10SM OVC048 M02/M06 A3004 RMK AO2 SLP182 T10221056

TAF KGFL
Valid from the 17 at 00:00 until the 18 at 00:00 UTC


162333Z 1700/1724 20004KT P6SM BKN035
FM171400 32007KT P6SM SCT040



MET'MAP, your aeronautical weather chart ! - Copyright ORBIFLY December 2007 - Disclaimer

ORBIFLY MET'MAP TEAM :

Programming & Development : Alexandra Zaïnal
Concept & original design : Baudouin d'Aumeries
Assistance for programming : Marc-Olivier Méhu
Technical & hardware support : Manuel Goepfert

Contact : metmap@orbifly.com




SOURCES & CREDITS :

   NOAA